Terminal Aerodrome Forecast
Issued by NWS North Platte, NE

Home | Current Version | Previous Version | Text Only | Print | Product List | Glossary On
Versions: 1 2 3 4 5 6 7 8 9 10 11 12 13 14 15
083
FTUS43 KLBF 092335
TAFVTN
TAF
KVTN 092335Z 1000/1024 02010KT P6SM BKN012
     FM100600 07007KT P6SM OVC025
      TEMPO 1006/1008 -SN OVC015
     FM100800 10007KT 3SM -SN OVC009
     FM101400 12010KT P6SM OVC015
     FM102000 14010KT P6SM OVC020=

USA.gov is the U.S. government's official web portal to all federal, state and local government web resources and services.